RYR36SL EPKK-LFOB
Flight info
| Callsign | RYR36SL |
|---|---|
| Flight time | 2h 0m |
| Altitude | 40000 |
| Route | ADADO DCT UTEVO DCT ETUDA DCT OKG DCT SULUS L984 KOMIB DCT LOHRE DCT BETEX DCT IDOSA DCT TOLVU/N0446F390 DCT RAPOR DCT VEDUS |
| Aircraft | B38M/M-SDE1FGHILORVWXY/HB1 |
Departure
| Time | 2026-05-05 11:31 |
|---|---|
| Airport | Kraków John Paul II International Airport (EPKK) |
Arrival
| Time | 2026-05-05 13:32 |
|---|---|
| Airport | Beauvais-Tillé airport (LFOB) |
| Time | Latitude | Longitude | Altitude | Speed | Heading |
|---|---|---|---|---|---|
| 2026-05-05 11:12 | 50.07494 | 19.80212 | 792 ft | 0 kts | 168° |
| 2026-05-05 11:26 | 50.07490 | 19.80213 | 792 ft | 2 kts | 168° |
| 2026-05-05 11:26 | 50.07469 | 19.80220 | 793 ft | 4 kts | 168° |
| 2026-05-05 11:26 | 50.07435 | 19.80215 | 793 ft | 6 kts | 221° |
| 2026-05-05 11:26 | 50.07418 | 19.80148 | 793 ft | 8 kts | 257° |
| 2026-05-05 11:27 | 50.07404 | 19.80051 | 793 ft | 10 kts | 257° |
| 2026-05-05 11:27 | 50.07434 | 19.79960 | 792 ft | 11 kts | 348° |
| 2026-05-05 11:27 | 50.07517 | 19.79932 | 792 ft | 14 kts | 348° |
| 2026-05-05 11:27 | 50.07618 | 19.79898 | 792 ft | 16 kts | 348° |
| 2026-05-05 11:28 | 50.07717 | 19.79925 | 792 ft | 16 kts | 63° |
| 2026-05-05 11:28 | 50.07745 | 19.80097 | 792 ft | 17 kts | 77° |
| 2026-05-05 11:28 | 50.07772 | 19.80290 | 792 ft | 17 kts | 77° |
| 2026-05-05 11:28 | 50.07828 | 19.80341 | 793 ft | 7 kts | 348° |
| 2026-05-05 11:29 | 50.07840 | 19.80337 | 793 ft | 2 kts | 348° |
| 2026-05-05 11:29 | 50.07861 | 19.80329 | 793 ft | 5 kts | 348° |
| 2026-05-05 11:29 | 50.07903 | 19.80315 | 792 ft | 8 kts | 348° |
| 2026-05-05 11:29 | 50.07966 | 19.80294 | 792 ft | 11 kts | 348° |
| 2026-05-05 11:30 | 50.08015 | 19.80215 | 792 ft | 10 kts | 268° |
| 2026-05-05 11:30 | 50.08013 | 19.80203 | 792 ft | 0 kts | 259° |
| 2026-05-05 11:30 | 50.08011 | 19.80185 | 792 ft | 7 kts | 259° |
| 2026-05-05 11:31 | 50.07950 | 19.79735 | 792 ft | 77 kts | 258° |
| 2026-05-05 11:31 | 50.07794 | 19.78618 | 794 ft | 133 kts | 257° |
| 2026-05-05 11:31 | 50.07568 | 19.77028 | 939 ft | 161 kts | 257° |
| 2026-05-05 11:31 | 50.07337 | 19.75321 | 1579 ft | 163 kts | 252° |
| 2026-05-05 11:32 | 50.07112 | 19.73538 | 2138 ft | 167 kts | 254° |
| 2026-05-05 11:32 | 50.06860 | 19.71786 | 2940 ft | 173 kts | 251° |
| 2026-05-05 11:32 | 50.06577 | 19.69863 | 3513 ft | 191 kts | 251° |
| 2026-05-05 11:32 | 50.06268 | 19.67726 | 4071 ft | 219 kts | 253° |
| 2026-05-05 11:33 | 50.06058 | 19.65231 | 4689 ft | 242 kts | 269° |
| 2026-05-05 11:33 | 50.06378 | 19.62638 | 5684 ft | 253 kts | 277° |
| 2026-05-05 11:33 | 50.06659 | 19.59837 | 6277 ft | 270 kts | 271° |
| 2026-05-05 11:33 | 50.06860 | 19.56923 | 7215 ft | 269 kts | 272° |
| 2026-05-05 11:34 | 50.07081 | 19.54031 | 8206 ft | 272 kts | 272° |
| 2026-05-05 11:34 | 50.07314 | 19.51097 | 9180 ft | 273 kts | 273° |
| 2026-05-05 11:34 | 50.07553 | 19.48146 | 10113 ft | 276 kts | 274° |
| 2026-05-05 11:34 | 50.07804 | 19.45105 | 10672 ft | 292 kts | 274° |
| 2026-05-05 11:35 | 50.08072 | 19.41892 | 11282 ft | 304 kts | 274° |
| 2026-05-05 11:35 | 50.08347 | 19.38587 | 12004 ft | 312 kts | 274° |
| 2026-05-05 11:35 | 50.08630 | 19.35214 | 12925 ft | 316 kts | 274° |
| 2026-05-05 11:35 | 50.08919 | 19.31782 | 13778 ft | 322 kts | 274° |
| 2026-05-05 11:36 | 50.09204 | 19.28351 | 14627 ft | 326 kts | 274° |
| 2026-05-05 11:36 | 50.09496 | 19.24819 | 15471 ft | 330 kts | 273° |
| 2026-05-05 11:36 | 50.09791 | 19.21261 | 16309 ft | 334 kts | 273° |
| 2026-05-05 11:36 | 50.10090 | 19.17640 | 17137 ft | 338 kts | 273° |
| 2026-05-05 11:37 | 50.10390 | 19.13984 | 17925 ft | 343 kts | 273° |
| 2026-05-05 11:37 | 50.10694 | 19.10277 | 18621 ft | 347 kts | 273° |
| 2026-05-05 11:37 | 50.11001 | 19.06517 | 19320 ft | 350 kts | 274° |
| 2026-05-05 11:37 | 50.11308 | 19.02733 | 19985 ft | 354 kts | 274° |
| 2026-05-05 11:38 | 50.11618 | 18.98900 | 20657 ft | 357 kts | 274° |
| 2026-05-05 11:38 | 50.11925 | 18.95077 | 21316 ft | 361 kts | 275° |
| 2026-05-05 11:38 | 50.12237 | 18.91182 | 21983 ft | 364 kts | 275° |
| 2026-05-05 11:38 | 50.12551 | 18.87248 | 22639 ft | 368 kts | 275° |
| 2026-05-05 11:39 | 50.12866 | 18.83269 | 23258 ft | 371 kts | 275° |
| 2026-05-05 11:39 | 50.13183 | 18.79262 | 23830 ft | 375 kts | 275° |
| 2026-05-05 11:39 | 50.13501 | 18.75208 | 24351 ft | 378 kts | 275° |
| 2026-05-05 11:39 | 50.13821 | 18.71128 | 24871 ft | 381 kts | 275° |
| 2026-05-05 11:40 | 50.14142 | 18.67018 | 25387 ft | 383 kts | 275° |
| 2026-05-05 11:40 | 50.14464 | 18.62881 | 25889 ft | 386 kts | 275° |
| 2026-05-05 11:40 | 50.14787 | 18.58701 | 26407 ft | 389 kts | 275° |
| 2026-05-05 11:40 | 50.15111 | 18.54497 | 26883 ft | 392 kts | 275° |
| 2026-05-05 11:41 | 50.15327 | 18.51680 | 27206 ft | 394 kts | 275° |
| 2026-05-05 11:41 | 50.15650 | 18.47440 | 27690 ft | 396 kts | 275° |
| 2026-05-05 11:41 | 50.15975 | 18.43152 | 28149 ft | 399 kts | 275° |
| 2026-05-05 11:41 | 50.16301 | 18.38842 | 28622 ft | 402 kts | 275° |
| 2026-05-05 11:42 | 50.16628 | 18.34487 | 29085 ft | 404 kts | 275° |
| 2026-05-05 11:42 | 50.16955 | 18.30118 | 29531 ft | 407 kts | 275° |
| 2026-05-05 11:42 | 50.17284 | 18.25702 | 29953 ft | 410 kts | 275° |
| 2026-05-05 11:42 | 50.17611 | 18.21278 | 30327 ft | 412 kts | 275° |
| 2026-05-05 11:43 | 50.17939 | 18.16824 | 30704 ft | 414 kts | 274° |
| 2026-05-05 11:43 | 50.18262 | 18.12412 | 31082 ft | 416 kts | 275° |
| 2026-05-05 11:43 | 50.18590 | 18.07912 | 31460 ft | 418 kts | 275° |
| 2026-05-05 11:43 | 50.18918 | 18.03383 | 31819 ft | 420 kts | 275° |
| 2026-05-05 11:44 | 50.19246 | 17.98828 | 32188 ft | 422 kts | 275° |
| 2026-05-05 11:44 | 50.19575 | 17.94252 | 32531 ft | 425 kts | 275° |
| 2026-05-05 11:44 | 50.19901 | 17.89658 | 32874 ft | 427 kts | 275° |
| 2026-05-05 11:44 | 50.20229 | 17.85037 | 33218 ft | 429 kts | 275° |
| 2026-05-05 11:45 | 50.20556 | 17.80390 | 33571 ft | 431 kts | 275° |
| 2026-05-05 11:45 | 50.20875 | 17.75753 | 34005 ft | 429 kts | 273° |
| 2026-05-05 11:45 | 50.20947 | 17.71159 | 34395 ft | 427 kts | 267° |
| 2026-05-05 11:45 | 50.20858 | 17.66528 | 34788 ft | 426 kts | 268° |
| 2026-05-05 11:46 | 50.20861 | 17.61912 | 35167 ft | 425 kts | 269° |
| 2026-05-05 11:46 | 50.20853 | 17.57295 | 35560 ft | 424 kts | 269° |
| 2026-05-05 11:46 | 50.20833 | 17.52688 | 35918 ft | 423 kts | 268° |
| 2026-05-05 11:46 | 50.20807 | 17.48111 | 36296 ft | 422 kts | 268° |
| 2026-05-05 11:47 | 50.20777 | 17.43522 | 36644 ft | 421 kts | 268° |
| 2026-05-05 11:47 | 50.20746 | 17.38965 | 36999 ft | 420 kts | 268° |
| 2026-05-05 11:47 | 50.20713 | 17.34406 | 37329 ft | 419 kts | 268° |
| 2026-05-05 11:47 | 50.20678 | 17.29861 | 37658 ft | 418 kts | 268° |
| 2026-05-05 11:48 | 50.20602 | 17.20726 | 37833 ft | 428 kts | 268° |
| 2026-05-05 11:48 | 50.20517 | 17.11372 | 37831 ft | 431 kts | 268° |
| 2026-05-05 11:49 | 50.20425 | 17.02001 | 37834 ft | 431 kts | 268° |
| 2026-05-05 11:49 | 50.20325 | 16.92659 | 37831 ft | 431 kts | 268° |
| 2026-05-05 11:50 | 50.20218 | 16.83353 | 37831 ft | 430 kts | 268° |
| 2026-05-05 11:50 | 50.20104 | 16.74002 | 37830 ft | 430 kts | 268° |
| 2026-05-05 11:51 | 50.19982 | 16.64672 | 37829 ft | 430 kts | 268° |
| 2026-05-05 11:51 | 50.19852 | 16.55385 | 37832 ft | 430 kts | 267° |
| 2026-05-05 11:52 | 50.19716 | 16.46058 | 37823 ft | 430 kts | 267° |
| 2026-05-05 11:52 | 50.19571 | 16.36715 | 37821 ft | 430 kts | 267° |
| 2026-05-05 11:53 | 50.19419 | 16.27378 | 37824 ft | 430 kts | 267° |
| 2026-05-05 11:53 | 50.19260 | 16.18051 | 37822 ft | 430 kts | 267° |
| 2026-05-05 11:54 | 50.19093 | 16.08722 | 37827 ft | 430 kts | 267° |
| 2026-05-05 11:54 | 50.18918 | 15.99373 | 37824 ft | 430 kts | 267° |
| 2026-05-05 11:55 | 50.18737 | 15.90096 | 37824 ft | 430 kts | 267° |
| 2026-05-05 11:55 | 50.18547 | 15.80763 | 37829 ft | 430 kts | 267° |
| 2026-05-05 11:56 | 50.18351 | 15.71442 | 37826 ft | 430 kts | 267° |
| 2026-05-05 11:56 | 50.18146 | 15.62095 | 37824 ft | 430 kts | 266° |
| 2026-05-05 11:57 | 50.17935 | 15.52774 | 37829 ft | 430 kts | 266° |
| 2026-05-05 11:57 | 50.17717 | 15.43512 | 37829 ft | 429 kts | 266° |
| 2026-05-05 11:58 | 50.17491 | 15.34200 | 37814 ft | 429 kts | 266° |
| 2026-05-05 11:58 | 50.17257 | 15.24894 | 37822 ft | 429 kts | 266° |
| 2026-05-05 11:59 | 50.17016 | 15.15600 | 37807 ft | 429 kts | 266° |
| 2026-05-05 11:59 | 50.16768 | 15.06301 | 37817 ft | 429 kts | 266° |
| 2026-05-05 12:00 | 50.16512 | 14.97008 | 37812 ft | 428 kts | 266° |
| 2026-05-05 12:00 | 50.16251 | 14.87784 | 37825 ft | 428 kts | 266° |
| 2026-05-05 12:01 | 50.15981 | 14.78502 | 37819 ft | 428 kts | 266° |
| 2026-05-05 12:01 | 50.15727 | 14.70015 | 37819 ft | 427 kts | 266° |
| 2026-05-05 12:02 | 50.15455 | 14.61108 | 37842 ft | 427 kts | 266° |
| 2026-05-05 12:02 | 50.15164 | 14.51844 | 37837 ft | 427 kts | 265° |
| 2026-05-05 12:03 | 50.14866 | 14.42596 | 37838 ft | 427 kts | 265° |
| 2026-05-05 12:03 | 50.14561 | 14.33357 | 37829 ft | 427 kts | 265° |
| 2026-05-05 12:04 | 50.14249 | 14.24116 | 37835 ft | 427 kts | 265° |
| 2026-05-05 12:04 | 50.13932 | 14.14939 | 37825 ft | 427 kts | 265° |
| 2026-05-05 12:05 | 50.13604 | 14.05689 | 37824 ft | 427 kts | 265° |
| 2026-05-05 12:05 | 50.13270 | 13.96457 | 37816 ft | 426 kts | 265° |
| 2026-05-05 12:06 | 50.12929 | 13.87221 | 37822 ft | 426 kts | 265° |
| 2026-05-05 12:06 | 50.12583 | 13.78066 | 37808 ft | 426 kts | 265° |
| 2026-05-05 12:07 | 50.12227 | 13.68859 | 37805 ft | 426 kts | 265° |
| 2026-05-05 12:07 | 50.11864 | 13.59634 | 37815 ft | 426 kts | 265° |
| 2026-05-05 12:08 | 50.11494 | 13.50421 | 37811 ft | 425 kts | 264° |
| 2026-05-05 12:08 | 50.11120 | 13.41279 | 37810 ft | 425 kts | 264° |
| 2026-05-05 12:09 | 50.10736 | 13.32089 | 37814 ft | 424 kts | 264° |
| 2026-05-05 12:09 | 50.10345 | 13.22907 | 37823 ft | 425 kts | 264° |
| 2026-05-05 12:10 | 50.09948 | 13.13727 | 37824 ft | 425 kts | 264° |
| 2026-05-05 12:10 | 50.09541 | 13.04529 | 37830 ft | 425 kts | 264° |
| 2026-05-05 12:11 | 50.09131 | 12.95395 | 37822 ft | 425 kts | 264° |
| 2026-05-05 12:11 | 50.08712 | 12.86195 | 37831 ft | 425 kts | 263° |
| 2026-05-05 12:12 | 50.08287 | 12.76985 | 37829 ft | 425 kts | 263° |
| 2026-05-05 12:12 | 50.07856 | 12.67795 | 37822 ft | 425 kts | 263° |
| 2026-05-05 12:13 | 50.07420 | 12.58667 | 37822 ft | 426 kts | 263° |
| 2026-05-05 12:13 | 50.06975 | 12.49471 | 37815 ft | 426 kts | 263° |
| 2026-05-05 12:14 | 50.06555 | 12.40264 | 37809 ft | 427 kts | 266° |
| 2026-05-05 12:14 | 50.06841 | 12.30997 | 37811 ft | 428 kts | 268° |
| 2026-05-05 12:15 | 50.06898 | 12.21731 | 37822 ft | 428 kts | 268° |
| 2026-05-05 12:15 | 50.06983 | 12.12451 | 37822 ft | 429 kts | 268° |
| 2026-05-05 12:16 | 50.07071 | 12.03146 | 37836 ft | 429 kts | 268° |
| 2026-05-05 12:16 | 50.07151 | 11.93869 | 37837 ft | 429 kts | 268° |
| 2026-05-05 12:17 | 50.07224 | 11.84558 | 37835 ft | 429 kts | 267° |
| 2026-05-05 12:17 | 50.07289 | 11.75317 | 37847 ft | 430 kts | 267° |
| 2026-05-05 12:18 | 50.07347 | 11.65953 | 37826 ft | 430 kts | 267° |
| 2026-05-05 12:18 | 50.07398 | 11.56691 | 37834 ft | 431 kts | 267° |
| 2026-05-05 12:19 | 50.07441 | 11.47362 | 37832 ft | 431 kts | 267° |
| 2026-05-05 12:19 | 50.07477 | 11.38025 | 37820 ft | 431 kts | 267° |
| 2026-05-05 12:20 | 50.07506 | 11.28689 | 37817 ft | 431 kts | 266° |
| 2026-05-05 12:20 | 50.07527 | 11.19356 | 37818 ft | 431 kts | 266° |
| 2026-05-05 12:21 | 50.07540 | 11.09993 | 37820 ft | 432 kts | 266° |
| 2026-05-05 12:21 | 50.07546 | 11.00692 | 37826 ft | 433 kts | 266° |
| 2026-05-05 12:22 | 50.07544 | 10.91330 | 37820 ft | 433 kts | 266° |
| 2026-05-05 12:22 | 50.07538 | 10.81945 | 37827 ft | 433 kts | 266° |
| 2026-05-05 12:23 | 50.07523 | 10.72534 | 37827 ft | 434 kts | 266° |
| 2026-05-05 12:23 | 50.07501 | 10.63208 | 37830 ft | 434 kts | 266° |
| 2026-05-05 12:24 | 50.07474 | 10.53806 | 37830 ft | 434 kts | 266° |
| 2026-05-05 12:24 | 50.07439 | 10.44388 | 37827 ft | 434 kts | 266° |
| 2026-05-05 12:25 | 50.07397 | 10.34982 | 37829 ft | 435 kts | 265° |
| 2026-05-05 12:25 | 50.07348 | 10.25557 | 37828 ft | 435 kts | 265° |
| 2026-05-05 12:26 | 50.07295 | 10.16141 | 37831 ft | 435 kts | 265° |
| 2026-05-05 12:26 | 50.07236 | 10.06728 | 37830 ft | 436 kts | 265° |
| 2026-05-05 12:27 | 50.07180 | 9.98879 | 37825 ft | 436 kts | 265° |
| 2026-05-05 12:27 | 50.07093 | 9.87903 | 37832 ft | 435 kts | 265° |
| 2026-05-05 12:28 | 50.07010 | 9.78460 | 37837 ft | 437 kts | 265° |
| 2026-05-05 12:28 | 50.06935 | 9.70582 | 37834 ft | 437 kts | 265° |
| 2026-05-05 12:29 | 50.06840 | 9.61112 | 37836 ft | 438 kts | 265° |
| 2026-05-05 12:29 | 50.06734 | 9.51618 | 37835 ft | 438 kts | 265° |
| 2026-05-05 12:30 | 50.06229 | 9.42196 | 37838 ft | 435 kts | 258° |
| 2026-05-05 12:30 | 50.05488 | 9.32844 | 37834 ft | 436 kts | 259° |
| 2026-05-05 12:31 | 50.04813 | 9.23461 | 37838 ft | 437 kts | 260° |
| 2026-05-05 12:31 | 50.04152 | 9.14118 | 37833 ft | 437 kts | 260° |
| 2026-05-05 12:32 | 50.03480 | 9.04711 | 37839 ft | 438 kts | 260° |
| 2026-05-05 12:32 | 50.02800 | 8.95303 | 37833 ft | 437 kts | 260° |
| 2026-05-05 12:33 | 50.02111 | 8.85891 | 37834 ft | 438 kts | 259° |
| 2026-05-05 12:33 | 50.01414 | 8.76473 | 37833 ft | 438 kts | 259° |
| 2026-05-05 12:34 | 50.00711 | 8.67062 | 37829 ft | 439 kts | 259° |
| 2026-05-05 12:34 | 50.00002 | 8.57696 | 37834 ft | 439 kts | 259° |
| 2026-05-05 12:35 | 49.99280 | 8.48248 | 37834 ft | 439 kts | 259° |
| 2026-05-05 12:35 | 49.98582 | 8.39220 | 37853 ft | 440 kts | 259° |
| 2026-05-05 12:36 | 49.97847 | 8.29801 | 37851 ft | 441 kts | 259° |
| 2026-05-05 12:36 | 49.97290 | 8.22734 | 37854 ft | 441 kts | 259° |
| 2026-05-05 12:37 | 49.96625 | 8.14376 | 37842 ft | 442 kts | 259° |
| 2026-05-05 12:37 | 49.95918 | 8.05568 | 37845 ft | 443 kts | 259° |
| 2026-05-05 12:38 | 49.95147 | 7.96063 | 37843 ft | 443 kts | 259° |
| 2026-05-05 12:38 | 49.94370 | 7.86579 | 37838 ft | 443 kts | 259° |
| 2026-05-05 12:39 | 49.93584 | 7.77078 | 37836 ft | 444 kts | 259° |
| 2026-05-05 12:39 | 49.92789 | 7.67572 | 37851 ft | 444 kts | 259° |
| 2026-05-05 12:40 | 49.91985 | 7.58053 | 37849 ft | 445 kts | 259° |
| 2026-05-05 12:40 | 49.91177 | 7.48582 | 37854 ft | 445 kts | 259° |
| 2026-05-05 12:41 | 49.90357 | 7.39057 | 37858 ft | 446 kts | 259° |
| 2026-05-05 12:41 | 49.89526 | 7.29504 | 37860 ft | 446 kts | 259° |
| 2026-05-05 12:42 | 49.88692 | 7.20019 | 37855 ft | 446 kts | 259° |
| 2026-05-05 12:42 | 49.87846 | 7.10481 | 37853 ft | 447 kts | 258° |
| 2026-05-05 12:43 | 49.87022 | 7.01278 | 37846 ft | 447 kts | 258° |
| 2026-05-05 12:43 | 49.86159 | 6.91719 | 37827 ft | 447 kts | 258° |
| 2026-05-05 12:44 | 49.85292 | 6.82221 | 37825 ft | 448 kts | 258° |
| 2026-05-05 12:44 | 49.84414 | 6.72676 | 37830 ft | 448 kts | 258° |
| 2026-05-05 12:45 | 49.83526 | 6.63096 | 37835 ft | 449 kts | 258° |
| 2026-05-05 12:45 | 49.82633 | 6.53543 | 37831 ft | 449 kts | 258° |
| 2026-05-05 12:46 | 49.81728 | 6.43959 | 37836 ft | 449 kts | 257° |
| 2026-05-05 12:46 | 49.80496 | 6.34438 | 37543 ft | 454 kts | 255° |
| 2026-05-05 12:47 | 49.79879 | 6.29675 | 37243 ft | 452 kts | 255° |
| 2026-05-05 12:47 | 49.79264 | 6.24887 | 36909 ft | 453 kts | 255° |
| 2026-05-05 12:47 | 49.78651 | 6.20117 | 36573 ft | 452 kts | 255° |
| 2026-05-05 12:47 | 49.78037 | 6.15346 | 36222 ft | 453 kts | 255° |
| 2026-05-05 12:48 | 49.77420 | 6.10559 | 35869 ft | 453 kts | 254° |
| 2026-05-05 12:48 | 49.76801 | 6.05782 | 35560 ft | 453 kts | 254° |
| 2026-05-05 12:48 | 49.76187 | 6.01059 | 35229 ft | 453 kts | 254° |
| 2026-05-05 12:48 | 49.75564 | 5.96284 | 34847 ft | 453 kts | 253° |
| 2026-05-05 12:49 | 49.74942 | 5.91529 | 34477 ft | 453 kts | 253° |
| 2026-05-05 12:49 | 49.74313 | 5.86738 | 34094 ft | 453 kts | 253° |
| 2026-05-05 12:49 | 49.73686 | 5.81976 | 33715 ft | 453 kts | 253° |
| 2026-05-05 12:49 | 49.73053 | 5.77185 | 33253 ft | 455 kts | 253° |
| 2026-05-05 12:50 | 49.72416 | 5.72381 | 32847 ft | 457 kts | 254° |
| 2026-05-05 12:50 | 49.71773 | 5.67556 | 32399 ft | 459 kts | 254° |
| 2026-05-05 12:50 | 49.71137 | 5.62796 | 31990 ft | 462 kts | 254° |
| 2026-05-05 12:50 | 49.70494 | 5.57999 | 31565 ft | 464 kts | 255° |
| 2026-05-05 12:51 | 49.69837 | 5.53112 | 31262 ft | 466 kts | 255° |
| 2026-05-05 12:51 | 49.69170 | 5.48176 | 31021 ft | 469 kts | 255° |
| 2026-05-05 12:51 | 49.68502 | 5.43240 | 30857 ft | 469 kts | 255° |
| 2026-05-05 12:51 | 49.67832 | 5.38306 | 30842 ft | 468 kts | 255° |
| 2026-05-05 12:52 | 49.66495 | 5.28516 | 30837 ft | 459 kts | 255° |
| 2026-05-05 12:52 | 49.65847 | 5.23791 | 30565 ft | 455 kts | 255° |
| 2026-05-05 12:52 | 49.65184 | 5.18974 | 30051 ft | 461 kts | 255° |
| 2026-05-05 12:53 | 49.64515 | 5.14131 | 29455 ft | 464 kts | 255° |
| 2026-05-05 12:53 | 49.63839 | 5.09255 | 28933 ft | 466 kts | 255° |
| 2026-05-05 12:53 | 49.63156 | 5.04348 | 28438 ft | 467 kts | 255° |
| 2026-05-05 12:53 | 49.62471 | 4.99436 | 27935 ft | 469 kts | 255° |
| 2026-05-05 12:54 | 49.61091 | 4.89582 | 26934 ft | 471 kts | 255° |
| 2026-05-05 12:54 | 49.60393 | 4.84617 | 26398 ft | 472 kts | 255° |
| 2026-05-05 12:54 | 49.59707 | 4.79738 | 25866 ft | 473 kts | 255° |
| 2026-05-05 12:55 | 49.59299 | 4.74701 | 24866 ft | 476 kts | 268° |
| 2026-05-05 12:55 | 49.59554 | 4.69623 | 24336 ft | 468 kts | 272° |
| 2026-05-05 12:55 | 49.59687 | 4.64672 | 23989 ft | 457 kts | 265° |
| 2026-05-05 12:55 | 49.59377 | 4.59786 | 22930 ft | 460 kts | 262° |
| 2026-05-05 12:56 | 49.59196 | 4.54899 | 22225 ft | 455 kts | 266° |
| 2026-05-05 12:56 | 49.59137 | 4.50066 | 21604 ft | 448 kts | 267° |
| 2026-05-05 12:56 | 49.59084 | 4.45293 | 21015 ft | 441 kts | 267° |
| 2026-05-05 12:56 | 49.59030 | 4.40606 | 20473 ft | 434 kts | 267° |
| 2026-05-05 12:57 | 49.58977 | 4.36046 | 19942 ft | 428 kts | 266° |
| 2026-05-05 12:57 | 49.58922 | 4.31432 | 19422 ft | 422 kts | 266° |
| 2026-05-05 12:57 | 49.58876 | 4.27663 | 19007 ft | 417 kts | 266° |
| 2026-05-05 12:57 | 49.58842 | 4.24948 | 18726 ft | 414 kts | 266° |
| 2026-05-05 12:58 | 49.58785 | 4.20544 | 18475 ft | 404 kts | 266° |
| 2026-05-05 12:58 | 49.58727 | 4.16204 | 18261 ft | 405 kts | 266° |
| 2026-05-05 12:58 | 49.58668 | 4.11860 | 18052 ft | 405 kts | 266° |
| 2026-05-05 12:58 | 49.58607 | 4.07520 | 17816 ft | 404 kts | 266° |
| 2026-05-05 12:59 | 49.58545 | 4.03249 | 17582 ft | 403 kts | 266° |
| 2026-05-05 12:59 | 49.58481 | 3.98933 | 17353 ft | 402 kts | 266° |
| 2026-05-05 12:59 | 49.58416 | 3.94608 | 17120 ft | 401 kts | 267° |
| 2026-05-05 13:00 | 49.58281 | 3.86039 | 16666 ft | 399 kts | 267° |
| 2026-05-05 13:00 | 49.58212 | 3.81769 | 16442 ft | 397 kts | 267° |
| 2026-05-05 13:01 | 49.57997 | 3.69131 | 15646 ft | 394 kts | 267° |
| 2026-05-05 13:01 | 49.57922 | 3.64921 | 15338 ft | 392 kts | 267° |
| 2026-05-05 13:01 | 49.57847 | 3.60786 | 15045 ft | 391 kts | 267° |
| 2026-05-05 13:01 | 49.57770 | 3.56601 | 14750 ft | 390 kts | 268° |
| 2026-05-05 13:02 | 49.57691 | 3.52425 | 14443 ft | 389 kts | 268° |
| 2026-05-05 13:02 | 49.57612 | 3.48282 | 14148 ft | 387 kts | 268° |
| 2026-05-05 13:02 | 49.57531 | 3.44123 | 13845 ft | 386 kts | 268° |
| 2026-05-05 13:02 | 49.57448 | 3.39990 | 13549 ft | 385 kts | 268° |
| 2026-05-05 13:03 | 49.57365 | 3.35869 | 13238 ft | 383 kts | 268° |
| 2026-05-05 13:03 | 49.57280 | 3.31776 | 13009 ft | 382 kts | 268° |
| 2026-05-05 13:03 | 49.57196 | 3.27727 | 12774 ft | 381 kts | 268° |
| 2026-05-05 13:03 | 49.57109 | 3.23659 | 12527 ft | 380 kts | 268° |
| 2026-05-05 13:04 | 49.57021 | 3.19597 | 12275 ft | 378 kts | 268° |
| 2026-05-05 13:04 | 49.56932 | 3.15555 | 12030 ft | 377 kts | 268° |
| 2026-05-05 13:04 | 49.56842 | 3.11526 | 11798 ft | 376 kts | 268° |
| 2026-05-05 13:04 | 49.56751 | 3.07520 | 11562 ft | 372 kts | 268° |
| 2026-05-05 13:05 | 49.56659 | 3.03525 | 11029 ft | 372 kts | 269° |
| 2026-05-05 13:05 | 49.56565 | 2.99561 | 10799 ft | 367 kts | 268° |
| 2026-05-05 13:05 | 49.56473 | 2.95668 | 10632 ft | 360 kts | 268° |
| 2026-05-05 13:05 | 49.56382 | 2.91866 | 10457 ft | 350 kts | 268° |
| 2026-05-05 13:06 | 49.56292 | 2.88153 | 10299 ft | 341 kts | 268° |
| 2026-05-05 13:06 | 49.56202 | 2.84528 | 10106 ft | 339 kts | 268° |
| 2026-05-05 13:06 | 49.56112 | 2.80897 | 9763 ft | 339 kts | 268° |
| 2026-05-05 13:06 | 49.56021 | 2.77315 | 9346 ft | 339 kts | 268° |
| 2026-05-05 13:07 | 49.55929 | 2.73708 | 8955 ft | 336 kts | 268° |
| 2026-05-05 13:07 | 49.55838 | 2.70207 | 8569 ft | 329 kts | 268° |
| 2026-05-05 13:07 | 49.55747 | 2.66727 | 8216 ft | 321 kts | 269° |
| 2026-05-05 13:07 | 49.55921 | 2.63385 | 7949 ft | 307 kts | 287° |
| 2026-05-05 13:08 | 49.56842 | 2.60473 | 7614 ft | 296 kts | 307° |
| 2026-05-05 13:08 | 49.57905 | 2.57867 | 7568 ft | 282 kts | 297° |
| 2026-05-05 13:08 | 49.58264 | 2.54949 | 7428 ft | 279 kts | 265° |
| 2026-05-05 13:08 | 49.57593 | 2.52181 | 6971 ft | 279 kts | 231° |
| 2026-05-05 13:09 | 49.56253 | 2.50048 | 6533 ft | 279 kts | 221° |
| 2026-05-05 13:09 | 49.54870 | 2.47954 | 6128 ft | 278 kts | 229° |
| 2026-05-05 13:09 | 49.54052 | 2.45314 | 5773 ft | 272 kts | 264° |
| 2026-05-05 13:09 | 49.54303 | 2.42611 | 5640 ft | 251 kts | 297° |
| 2026-05-05 13:10 | 49.55086 | 2.40296 | 5517 ft | 238 kts | 302° |
| 2026-05-05 13:10 | 49.55872 | 2.38103 | 5430 ft | 229 kts | 302° |
| 2026-05-05 13:10 | 49.56640 | 2.35965 | 5188 ft | 227 kts | 302° |
| 2026-05-05 13:10 | 49.57397 | 2.33850 | 5028 ft | 220 kts | 302° |
| 2026-05-05 13:11 | 49.58119 | 2.31806 | 4867 ft | 214 kts | 302° |
| 2026-05-05 13:11 | 49.58819 | 2.29805 | 4579 ft | 214 kts | 302° |
| 2026-05-05 13:11 | 49.59530 | 2.27768 | 4339 ft | 212 kts | 302° |
| 2026-05-05 13:11 | 49.60217 | 2.25799 | 4109 ft | 210 kts | 302° |
| 2026-05-05 13:12 | 49.60903 | 2.23815 | 3861 ft | 209 kts | 302° |
| 2026-05-05 13:12 | 49.61581 | 2.21840 | 3610 ft | 208 kts | 302° |
| 2026-05-05 13:12 | 49.62252 | 2.19871 | 3358 ft | 207 kts | 302° |
| 2026-05-05 13:12 | 49.62917 | 2.17891 | 3099 ft | 207 kts | 302° |
| 2026-05-05 13:13 | 49.63573 | 2.15925 | 2943 ft | 206 kts | 302° |
| 2026-05-05 13:13 | 49.64227 | 2.13960 | 2939 ft | 206 kts | 302° |
| 2026-05-05 13:13 | 49.64762 | 2.11895 | 2925 ft | 211 kts | 283° |
| 2026-05-05 13:13 | 49.64807 | 2.09624 | 2992 ft | 214 kts | 271° |
| 2026-05-05 13:14 | 49.64748 | 2.07327 | 3007 ft | 215 kts | 271° |
| 2026-05-05 13:14 | 49.64685 | 2.05018 | 2977 ft | 215 kts | 271° |
| 2026-05-05 13:14 | 49.64647 | 2.03484 | 2976 ft | 216 kts | 271° |
| 2026-05-05 13:14 | 49.64593 | 2.01169 | 2980 ft | 215 kts | 271° |
| 2026-05-05 13:15 | 49.64511 | 1.98106 | 2987 ft | 216 kts | 271° |
| 2026-05-05 13:15 | 49.64446 | 1.95781 | 2977 ft | 217 kts | 271° |
| 2026-05-05 13:15 | 49.64386 | 1.93476 | 2950 ft | 214 kts | 271° |
| 2026-05-05 13:15 | 49.64335 | 1.91922 | 2939 ft | 214 kts | 271° |
| 2026-05-05 13:16 | 49.64260 | 1.89654 | 2969 ft | 215 kts | 268° |
| 2026-05-05 13:16 | 49.63808 | 1.87475 | 2900 ft | 217 kts | 232° |
| 2026-05-05 13:16 | 49.62697 | 1.85851 | 2994 ft | 227 kts | 221° |
| 2026-05-05 13:16 | 49.61451 | 1.84211 | 3010 ft | 240 kts | 221° |
| 2026-05-05 13:17 | 49.60172 | 1.82508 | 2975 ft | 245 kts | 221° |
| 2026-05-05 13:17 | 49.58880 | 1.80778 | 2963 ft | 245 kts | 221° |
| 2026-05-05 13:17 | 49.57553 | 1.79131 | 2964 ft | 245 kts | 209° |
| 2026-05-05 13:17 | 49.55944 | 1.78581 | 2916 ft | 237 kts | 168° |
| 2026-05-05 13:18 | 49.54509 | 1.79631 | 2963 ft | 229 kts | 135° |
| 2026-05-05 13:18 | 49.53349 | 1.81335 | 2983 ft | 231 kts | 131° |
| 2026-05-05 13:18 | 49.52204 | 1.83066 | 2976 ft | 230 kts | 131° |
| 2026-05-05 13:18 | 49.51062 | 1.84790 | 3023 ft | 231 kts | 130° |
| 2026-05-05 13:19 | 49.49919 | 1.86520 | 2994 ft | 230 kts | 131° |
| 2026-05-05 13:19 | 49.48773 | 1.88246 | 2962 ft | 230 kts | 131° |
| 2026-05-05 13:19 | 49.47630 | 1.89967 | 2997 ft | 230 kts | 131° |
| 2026-05-05 13:19 | 49.46504 | 1.91661 | 2979 ft | 227 kts | 131° |
| 2026-05-05 13:20 | 49.45419 | 1.93282 | 2974 ft | 208 kts | 131° |
| 2026-05-05 13:20 | 49.44414 | 1.94761 | 2925 ft | 195 kts | 131° |
| 2026-05-05 13:20 | 49.43432 | 1.96201 | 2956 ft | 195 kts | 131° |
| 2026-05-05 13:20 | 49.42454 | 1.97631 | 2962 ft | 194 kts | 131° |
| 2026-05-05 13:21 | 49.41473 | 1.99065 | 2982 ft | 195 kts | 131° |
| 2026-05-05 13:21 | 49.40490 | 2.00505 | 2975 ft | 195 kts | 131° |
| 2026-05-05 13:21 | 49.39510 | 2.01946 | 2966 ft | 195 kts | 131° |
| 2026-05-05 13:21 | 49.38529 | 2.03386 | 2962 ft | 195 kts | 131° |
| 2026-05-05 13:22 | 49.37548 | 2.04823 | 2971 ft | 195 kts | 131° |
| 2026-05-05 13:22 | 49.36567 | 2.06261 | 2967 ft | 195 kts | 131° |
| 2026-05-05 13:22 | 49.35584 | 2.07698 | 2968 ft | 195 kts | 131° |
| 2026-05-05 13:22 | 49.34616 | 2.09114 | 2969 ft | 195 kts | 131° |
| 2026-05-05 13:23 | 49.33635 | 2.10554 | 2978 ft | 195 kts | 131° |
| 2026-05-05 13:23 | 49.32750 | 2.12108 | 2949 ft | 190 kts | 112° |
| 2026-05-05 13:23 | 49.32300 | 2.13943 | 2973 ft | 182 kts | 102° |
| 2026-05-05 13:23 | 49.31947 | 2.15803 | 2977 ft | 182 kts | 101° |
| 2026-05-05 13:24 | 49.31595 | 2.17662 | 2966 ft | 182 kts | 101° |
| 2026-05-05 13:24 | 49.31242 | 2.19522 | 2960 ft | 182 kts | 101° |
| 2026-05-05 13:24 | 49.30887 | 2.21384 | 2974 ft | 182 kts | 101° |
| 2026-05-05 13:24 | 49.30534 | 2.23243 | 2967 ft | 182 kts | 101° |
| 2026-05-05 13:25 | 49.30256 | 2.24690 | 2960 ft | 182 kts | 101° |
| 2026-05-05 13:25 | 49.29903 | 2.26552 | 2930 ft | 182 kts | 101° |
| 2026-05-05 13:25 | 49.29551 | 2.28406 | 2979 ft | 182 kts | 101° |
| 2026-05-05 13:25 | 49.29197 | 2.30278 | 2989 ft | 183 kts | 101° |
| 2026-05-05 13:26 | 49.28915 | 2.32168 | 2956 ft | 179 kts | 86° |
| 2026-05-05 13:26 | 49.29359 | 2.33789 | 2876 ft | 166 kts | 43° |
| 2026-05-05 13:26 | 49.30237 | 2.35010 | 3009 ft | 170 kts | 41° |
| 2026-05-05 13:26 | 49.31102 | 2.36210 | 3005 ft | 171 kts | 41° |
| 2026-05-05 13:27 | 49.31992 | 2.37436 | 3002 ft | 171 kts | 39° |
| 2026-05-05 13:27 | 49.33019 | 2.38296 | 2927 ft | 169 kts | 11° |
| 2026-05-05 13:27 | 49.34173 | 2.38003 | 2901 ft | 176 kts | 334° |
| 2026-05-05 13:27 | 49.35017 | 2.36599 | 2938 ft | 187 kts | 299° |
| 2026-05-05 13:28 | 49.35483 | 2.34720 | 2996 ft | 189 kts | 298° |
| 2026-05-05 13:28 | 49.36069 | 2.32932 | 2977 ft | 186 kts | 306° |
| 2026-05-05 13:28 | 49.36751 | 2.31253 | 2960 ft | 185 kts | 308° |
| 2026-05-05 13:28 | 49.37464 | 2.29594 | 2822 ft | 186 kts | 309° |
| 2026-05-05 13:29 | 49.38180 | 2.27955 | 2590 ft | 183 kts | 309° |
| 2026-05-05 13:29 | 49.38884 | 2.26341 | 2370 ft | 181 kts | 309° |
| 2026-05-05 13:29 | 49.39573 | 2.24759 | 2128 ft | 171 kts | 309° |
| 2026-05-05 13:29 | 49.40187 | 2.23337 | 1938 ft | 149 kts | 309° |
| 2026-05-05 13:30 | 49.40733 | 2.22081 | 1730 ft | 139 kts | 310° |
| 2026-05-05 13:30 | 49.41268 | 2.20859 | 1546 ft | 137 kts | 310° |
| 2026-05-05 13:30 | 49.41800 | 2.19647 | 1339 ft | 136 kts | 309° |
| 2026-05-05 13:30 | 49.42319 | 2.18454 | 1158 ft | 136 kts | 309° |
| 2026-05-05 13:31 | 49.42844 | 2.17248 | 957 ft | 135 kts | 309° |
| 2026-05-05 13:31 | 49.43362 | 2.16063 | 785 ft | 133 kts | 309° |
| 2026-05-05 13:31 | 49.43859 | 2.14875 | 646 ft | 132 kts | 306° |
| 2026-05-05 13:31 | 49.44380 | 2.13711 | 456 ft | 132 kts | 306° |
| 2026-05-05 13:32 | 49.44891 | 2.12542 | 360 ft | 121 kts | 304° |
| 2026-05-05 13:32 | 49.45209 | 2.11804 | 362 ft | 49 kts | 303° |
| 2026-05-05 13:32 | 49.45389 | 2.11397 | 357 ft | 25 kts | 304° |
| 2026-05-05 13:32 | 49.45473 | 2.11312 | 364 ft | 11 kts | 25° |
| 2026-05-05 13:33 | 49.45536 | 2.11396 | 358 ft | 14 kts | 41° |
| 2026-05-05 13:33 | 49.45632 | 2.11527 | 358 ft | 19 kts | 41° |
| 2026-05-05 13:33 | 49.45724 | 2.11602 | 354 ft | 11 kts | 344° |
| 2026-05-05 13:33 | 49.45777 | 2.11528 | 354 ft | 12 kts | 314° |
| 2026-05-05 13:34 | 49.45842 | 2.11500 | 354 ft | 10 kts | 23° |
| 2026-05-05 13:34 | 49.45889 | 2.11533 | 360 ft | 2 kts | 334° |
| 2026-05-05 13:34 | 49.45900 | 2.11512 | 359 ft | 4 kts | 307° |
| 2026-05-05 13:34 | 49.45923 | 2.11470 | 354 ft | 6 kts | 312° |
| 2026-05-05 13:35 | 49.45930 | 2.11458 | 354 ft | 0 kts | 312° |